sensor_id;sensor_type;location;lat;lon;timestamp;pressure;altitude;pressure_sealevel;temperature;humidity
77590;BME280;66746;51.328;12.332;2023-03-23T00:01:16;99550.75;;;12.15;62.72
77590;BME280;66746;51.328;12.332;2023-03-23T00:03:42;99555.28;;;12.15;62.94
77590;BME280;66746;51.328;12.332;2023-03-23T00:06:08;99546.88;;;12.04;62.96
77590;BME280;66746;51.328;12.332;2023-03-23T00:08:36;99552.47;;;12.01;63.50
77590;BME280;66746;51.328;12.332;2023-03-23T00:11:01;99547.81;;;12.03;63.74
77590;BME280;66746;51.328;12.332;2023-03-23T00:13:28;99542.56;;;12.00;63.79
77590;BME280;66746;51.328;12.332;2023-03-23T00:15:54;99531.41;;;11.89;63.98
77590;BME280;66746;51.328;12.332;2023-03-23T00:18:21;99541.25;;;11.91;65.07
77590;BME280;66746;51.328;12.332;2023-03-23T00:20:46;99542.13;;;11.92;64.01
77590;BME280;66746;51.328;12.332;2023-03-23T00:23:12;99538.88;;;12.01;63.33
77590;BME280;66746;51.328;12.332;2023-03-23T00:25:37;99525.94;;;12.06;62.86
77590;BME280;66746;51.328;12.332;2023-03-23T00:28:05;99530.81;;;12.15;62.13
77590;BME280;66746;51.328;12.332;2023-03-23T00:30:31;99531.78;;;12.14;62.49
77590;BME280;66746;51.328;12.332;2023-03-23T00:32:57;99528.31;;;12.12;61.80
77590;BME280;66746;51.328;12.332;2023-03-23T00:35:24;99511.97;;;11.96;62.54
77590;BME280;66746;51.328;12.332;2023-03-23T00:37:49;99527.91;;;12.02;62.61
77590;BME280;66746;51.328;12.332;2023-03-23T00:40:15;99515.31;;;12.01;62.53
77590;BME280;66746;51.328;12.332;2023-03-23T00:42:40;99526.09;;;12.03;62.79
77590;BME280;66746;51.328;12.332;2023-03-23T00:45:06;99517.94;;;12.03;62.18
77590;BME280;66746;51.328;12.332;2023-03-23T00:47:32;99513.03;;;11.94;63.40
77590;BME280;66746;51.328;12.332;2023-03-23T00:49:57;99518.13;;;12.00;62.26
77590;BME280;66746;51.328;12.332;2023-03-23T00:52:25;99502.16;;;11.94;62.44
77590;BME280;66746;51.328;12.332;2023-03-23T00:54:50;99516.53;;;11.96;63.09
77590;BME280;66746;51.328;12.332;2023-03-23T00:57:16;99506.72;;;11.93;63.01
77590;BME280;66746;51.328;12.332;2023-03-23T00:59:41;99516.09;;;11.88;63.46
77590;BME280;66746;51.328;12.332;2023-03-23T01:02:07;99514.66;;;11.81;63.70
77590;BME280;66746;51.328;12.332;2023-03-23T01:04:34;99514.16;;;11.74;63.01
77590;BME280;66746;51.328;12.332;2023-03-23T01:06:59;99509.16;;;11.67;64.21
77590;BME280;66746;51.328;12.332;2023-03-23T01:09:26;99510.41;;;11.59;64.18
77590;BME280;66746;51.328;12.332;2023-03-23T01:11:52;99512.50;;;11.54;65.61
77590;BME280;66746;51.328;12.332;2023-03-23T01:14:19;99497.25;;;11.52;63.89
77590;BME280;66746;51.328;12.332;2023-03-23T01:16:44;99499.63;;;11.58;63.63
77590;BME280;66746;51.328;12.332;2023-03-23T01:19:10;99489.66;;;11.58;63.66
77590;BME280;66746;51.328;12.332;2023-03-23T01:21:36;99481.84;;;11.52;63.27
77590;BME280;66746;51.328;12.332;2023-03-23T01:24:02;99496.66;;;11.63;62.89
77590;BME280;66746;51.328;12.332;2023-03-23T01:26:29;99495.09;;;11.58;64.80
77590;BME280;66746;51.328;12.332;2023-03-23T01:28:54;99482.00;;;11.67;62.36
77590;BME280;66746;51.328;12.332;2023-03-23T01:31:22;99487.44;;;11.67;62.33
77590;BME280;66746;51.328;12.332;2023-03-23T01:33:48;99476.88;;;11.61;64.97
77590;BME280;66746;51.328;12.332;2023-03-23T01:36:16;99473.34;;;11.58;63.55
77590;BME280;66746;51.328;12.332;2023-03-23T01:38:44;99460.91;;;11.54;62.19
77590;BME280;66746;51.328;12.332;2023-03-23T01:41:10;99462.31;;;11.62;62.56
77590;BME280;66746;51.328;12.332;2023-03-23T01:43:56;99463.94;;;11.66;63.93
77590;BME280;66746;51.328;12.332;2023-03-23T01:46:23;99462.00;;;11.68;63.49
77590;BME280;66746;51.328;12.332;2023-03-23T01:48:50;99465.81;;;11.64;63.29
77590;BME280;66746;51.328;12.332;2023-03-23T01:51:17;99463.09;;;11.64;63.54
77590;BME280;66746;51.328;12.332;2023-03-23T01:53:48;99468.88;;;11.57;63.78
77590;BME280;66746;51.328;12.332;2023-03-23T01:56:18;99455.63;;;11.51;65.18
77590;BME280;66746;51.328;12.332;2023-03-23T01:58:45;99457.50;;;11.51;62.80
77590;BME280;66746;51.328;12.332;2023-03-23T02:01:14;99450.22;;;11.51;64.43
77590;BME280;66746;51.328;12.332;2023-03-23T02:03:42;99455.56;;;11.53;63.96
77590;BME280;66746;51.328;12.332;2023-03-23T02:06:09;99456.28;;;11.56;63.93
77590;BME280;66746;51.328;12.332;2023-03-23T02:08:42;99454.50;;;11.55;62.62
77590;BME280;66746;51.328;12.332;2023-03-23T02:11:12;99452.72;;;11.72;61.58
77590;BME280;66746;51.328;12.332;2023-03-23T02:13:38;99453.25;;;11.78;61.65
77590;BME280;66746;51.328;12.332;2023-03-23T02:16:09;99445.19;;;11.92;60.22
77590;BME280;66746;51.328;12.332;2023-03-23T02:18:48;99442.41;;;11.94;61.79
77590;BME280;66746;51.328;12.332;2023-03-23T02:21:51;99432.91;;;11.85;60.84
77590;BME280;66746;51.328;12.332;2023-03-23T02:24:43;99413.81;;;11.87;60.02
77590;BME280;66746;51.328;12.332;2023-03-23T02:27:16;99429.38;;;12.14;59.21
77590;BME280;66746;51.328;12.332;2023-03-23T02:29:50;99428.13;;;12.20;59.59
77590;BME280;66746;51.328;12.332;2023-03-23T02:35:18;99410.94;;;12.35;57.79
77590;BME280;66746;51.328;12.332;2023-03-23T02:37:48;99398.28;;;12.34;58.26
77590;BME280;66746;51.328;12.332;2023-03-23T02:40:17;99410.94;;;12.35;59.09
77590;BME280;66746;51.328;12.332;2023-03-23T02:42:47;99416.38;;;12.35;59.12
77590;BME280;66746;51.328;12.332;2023-03-23T02:45:15;99412.50;;;12.39;57.96
77590;BME280;66746;51.328;12.332;2023-03-23T02:47:44;99407.38;;;12.49;58.10
77590;BME280;66746;51.328;12.332;2023-03-23T02:50:16;99409.25;;;12.62;58.13
77590;BME280;66746;51.328;12.332;2023-03-23T02:52:45;99409.44;;;12.59;57.67
77590;BME280;66746;51.328;12.332;2023-03-23T02:55:12;99408.84;;;12.54;58.54
77590;BME280;66746;51.328;12.332;2023-03-23T02:57:38;99410.00;;;12.50;58.52
77590;BME280;66746;51.328;12.332;2023-03-23T03:00:06;99403.97;;;12.45;58.94
77590;BME280;66746;51.328;12.332;2023-03-23T03:02:34;99396.56;;;12.33;59.09
77590;BME280;66746;51.328;12.332;2023-03-23T03:05:05;99411.09;;;12.32;60.03
77590;BME280;66746;51.328;12.332;2023-03-23T03:07:43;99412.19;;;12.29;58.93
77590;BME280;66746;51.328;12.332;2023-03-23T03:10:17;99398.66;;;12.28;59.02
77590;BME280;66746;51.328;12.332;2023-03-23T03:12:47;99393.75;;;12.34;59.36
77590;BME280;66746;51.328;12.332;2023-03-23T03:15:23;99406.00;;;12.41;58.50
77590;BME280;66746;51.328;12.332;2023-03-23T03:17:55;99379.28;;;12.34;59.41
77590;BME280;66746;51.328;12.332;2023-03-23T03:20:25;99383.56;;;12.38;58.71
77590;BME280;66746;51.328;12.332;2023-03-23T03:22:53;99389.09;;;12.36;58.88
77590;BME280;66746;51.328;12.332;2023-03-23T03:25:20;99385.31;;;12.39;58.34
77590;BME280;66746;51.328;12.332;2023-03-23T03:27:47;99390.75;;;12.39;58.70
77590;BME280;66746;51.328;12.332;2023-03-23T03:30:20;99387.00;;;12.26;59.91
77590;BME280;66746;51.328;12.332;2023-03-23T03:32:48;99397.09;;;12.24;59.60
77590;BME280;66746;51.328;12.332;2023-03-23T03:35:16;99398.19;;;12.21;59.93
77590;BME280;66746;51.328;12.332;2023-03-23T03:37:42;99402.31;;;12.13;61.13
77590;BME280;66746;51.328;12.332;2023-03-23T03:40:11;99408.88;;;12.09;61.08
77590;BME280;66746;51.328;12.332;2023-03-23T03:42:38;99415.19;;;12.09;61.00
77590;BME280;66746;51.328;12.332;2023-03-23T03:45:05;99405.22;;;12.10;61.03
77590;BME280;66746;51.328;12.332;2023-03-23T03:47:31;99404.50;;;12.06;61.02
77590;BME280;66746;51.328;12.332;2023-03-23T03:49:56;99402.66;;;12.07;60.65
77590;BME280;66746;51.328;12.332;2023-03-23T03:52:23;99417.81;;;12.11;61.86
77590;BME280;66746;51.328;12.332;2023-03-23T03:54:48;99407.94;;;12.10;61.47
77590;BME280;66746;51.328;12.332;2023-03-23T03:57:15;99400.47;;;12.13;61.60
77590;BME280;66746;51.328;12.332;2023-03-23T03:59:59;99395.41;;;12.07;62.04
77590;BME280;66746;51.328;12.332;2023-03-23T04:02:41;99385.00;;;12.14;60.42
77590;BME280;66746;51.328;12.332;2023-03-23T04:05:07;99391.63;;;12.10;61.53
77590;BME280;66746;51.328;12.332;2023-03-23T04:07:32;99398.22;;;12.06;61.13
77590;BME280;66746;51.328;12.332;2023-03-23T04:09:58;99407.50;;;12.02;61.63
77590;BME280;66746;51.328;12.332;2023-03-23T04:12:25;99402.50;;;12.10;61.00
77590;BME280;66746;51.328;12.332;2023-03-23T04:14:56;99412.38;;;12.11;61.37
77590;BME280;66746;51.328;12.332;2023-03-23T04:17:26;99416.09;;;12.10;61.61
77590;BME280;66746;51.328;12.332;2023-03-23T04:19:52;99419.41;;;12.15;61.12
77590;BME280;66746;51.328;12.332;2023-03-23T04:22:18;99412.38;;;12.11;61.12
77590;BME280;66746;51.328;12.332;2023-03-23T04:24:44;99403.09;;;12.15;60.85
77590;BME280;66746;51.328;12.332;2023-03-23T04:27:15;99401.31;;;12.14;60.39
77590;BME280;66746;51.328;12.332;2023-03-23T04:29:41;99413.06;;;12.14;61.14
77590;BME280;66746;51.328;12.332;2023-03-23T04:32:24;99396.97;;;12.11;60.37
77590;BME280;66746;51.328;12.332;2023-03-23T04:34:52;99406.94;;;12.11;61.88
77590;BME280;66746;51.328;12.332;2023-03-23T04:37:23;99406.44;;;12.04;62.89
77590;BME280;66746;51.328;12.332;2023-03-23T04:39:49;99404.84;;;12.00;62.90
77590;BME280;66746;51.328;12.332;2023-03-23T04:42:15;99404.16;;;11.97;62.42
77590;BME280;66746;51.328;12.332;2023-03-23T04:45:15;99415.81;;;11.99;62.47
77590;BME280;66746;51.328;12.332;2023-03-23T04:47:41;99421.88;;;12.04;62.54
77590;BME280;66746;51.328;12.332;2023-03-23T04:50:19;99419.22;;;12.02;62.98
77590;BME280;66746;51.328;12.332;2023-03-23T04:52:45;99412.84;;;12.03;62.05
77590;BME280;66746;51.328;12.332;2023-03-23T04:55:14;99408.28;;;12.04;62.07
77590;BME280;66746;51.328;12.332;2023-03-23T04:57:42;99419.59;;;12.12;61.42
77590;BME280;66746;51.328;12.332;2023-03-23T05:00:27;99424.94;;;12.13;62.26
77590;BME280;66746;51.328;12.332;2023-03-23T05:02:55;99420.34;;;12.14;62.19
77590;BME280;66746;51.328;12.332;2023-03-23T05:05:24;99424.16;;;12.11;62.73
77590;BME280;66746;51.328;12.332;2023-03-23T05:07:51;99432.38;;;12.10;62.82
77590;BME280;66746;51.328;12.332;2023-03-23T05:10:20;99436.84;;;12.11;63.89
77590;BME280;66746;51.328;12.332;2023-03-23T05:12:46;99432.09;;;12.14;62.00
77590;BME280;66746;51.328;12.332;2023-03-23T05:15:12;99418.69;;;12.11;62.85
77590;BME280;66746;51.328;12.332;2023-03-23T05:17:40;99420.19;;;12.17;62.97
77590;BME280;66746;51.328;12.332;2023-03-23T05:20:13;99419.41;;;12.15;62.24
77590;BME280;66746;51.328;12.332;2023-03-23T05:22:42;99428.34;;;12.17;62.14
77590;BME280;66746;51.328;12.332;2023-03-23T05:25:08;99416.56;;;12.16;63.05
77590;BME280;66746;51.328;12.332;2023-03-23T05:27:37;99422.81;;;12.18;63.23
77590;BME280;66746;51.328;12.332;2023-03-23T05:30:15;99413.28;;;12.11;63.56
77590;BME280;66746;51.328;12.332;2023-03-23T05:32:42;99426.50;;;12.17;63.65
77590;BME280;66746;51.328;12.332;2023-03-23T05:35:28;99419.19;;;12.18;63.35
77590;BME280;66746;51.328;12.332;2023-03-23T05:37:54;99418.84;;;12.24;63.36
77590;BME280;66746;51.328;12.332;2023-03-23T05:40:21;99426.41;;;12.19;64.30
77590;BME280;66746;51.328;12.332;2023-03-23T05:42:55;99433.16;;;12.27;63.20
77590;BME280;66746;51.328;12.332;2023-03-23T05:45:28;99422.34;;;12.26;63.19
77590;BME280;66746;51.328;12.332;2023-03-23T05:47:54;99429.19;;;12.33;63.93
77590;BME280;66746;51.328;12.332;2023-03-23T05:50:20;99427.41;;;12.32;63.08
77590;BME280;66746;51.328;12.332;2023-03-23T05:52:46;99423.56;;;12.36;63.51
77590;BME280;66746;51.328;12.332;2023-03-23T05:55:14;99421.81;;;12.35;63.87
77590;BME280;66746;51.328;12.332;2023-03-23T05:57:42;99445.41;;;12.34;63.42
77590;BME280;66746;51.328;12.332;2023-03-23T06:00:20;99444.88;;;12.28;64.90
77590;BME280;66746;51.328;12.332;2023-03-23T06:02:55;99446.22;;;12.21;65.73
77590;BME280;66746;51.328;12.332;2023-03-23T06:05:26;99456.19;;;12.20;64.37
77590;BME280;66746;51.328;12.332;2023-03-23T06:07:54;99462.00;;;12.14;65.28
77590;BME280;66746;51.328;12.332;2023-03-23T06:10:19;99465.00;;;12.10;68.00
77590;BME280;66746;51.328;12.332;2023-03-23T06:12:54;99467.19;;;12.03;68.53
77590;BME280;66746;51.328;12.332;2023-03-23T06:15:40;99471.13;;;11.98;68.89
77590;BME280;66746;51.328;12.332;2023-03-23T06:18:30;99485.88;;;11.94;71.32
77590;BME280;66746;51.328;12.332;2023-03-23T06:21:14;99481.81;;;11.85;70.85
77590;BME280;66746;51.328;12.332;2023-03-23T06:23:50;99482.94;;;11.81;71.61
77590;BME280;66746;51.328;12.332;2023-03-23T06:26:18;99471.63;;;11.73;72.47
77590;BME280;66746;51.328;12.332;2023-03-23T06:28:48;99477.97;;;11.74;72.69
77590;BME280;66746;51.328;12.332;2023-03-23T06:31:15;99468.41;;;11.67;74.02
77590;BME280;66746;51.328;12.332;2023-03-23T06:33:42;99475.59;;;11.68;74.58
77590;BME280;66746;51.328;12.332;2023-03-23T06:36:27;99460.13;;;11.52;73.82
77590;BME280;66746;51.328;12.332;2023-03-23T06:39:06;99482.94;;;11.66;74.00
77590;BME280;66746;51.328;12.332;2023-03-23T06:41:49;99492.97;;;11.64;73.37
77590;BME280;66746;51.328;12.332;2023-03-23T06:44:15;99475.28;;;11.56;74.63
77590;BME280;66746;51.328;12.332;2023-03-23T06:46:41;99487.09;;;11.55;74.58
77590;BME280;66746;51.328;12.332;2023-03-23T06:49:21;99491.72;;;11.53;76.93
77590;BME280;66746;51.328;12.332;2023-03-23T06:51:52;99496.13;;;11.56;74.15
77590;BME280;66746;51.328;12.332;2023-03-23T06:54:18;99489.31;;;11.65;72.77
77590;BME280;66746;51.328;12.332;2023-03-23T06:56:44;99495.84;;;11.78;71.65
77590;BME280;66746;51.328;12.332;2023-03-23T06:59:09;99494.09;;;11.77;73.37
77590;BME280;66746;51.328;12.332;2023-03-23T07:01:35;99487.88;;;11.75;73.10
77590;BME280;66746;51.328;12.332;2023-03-23T07:04:03;99508.63;;;11.91;71.86
77590;BME280;66746;51.328;12.332;2023-03-23T07:06:47;99509.88;;;11.86;72.40
77590;BME280;66746;51.328;12.332;2023-03-23T07:09:13;99523.91;;;11.94;73.82
77590;BME280;66746;51.328;12.332;2023-03-23T07:11:40;99520.03;;;11.98;72.10
77590;BME280;66746;51.328;12.332;2023-03-23T07:14:14;99527.75;;;11.90;72.46
77590;BME280;66746;51.328;12.332;2023-03-23T07:16:40;99535.28;;;12.00;71.92
77590;BME280;66746;51.328;12.332;2023-03-23T07:19:05;99523.00;;;11.93;72.94
77590;BME280;66746;51.328;12.332;2023-03-23T07:21:33;99528.53;;;11.92;73.20
77590;BME280;66746;51.328;12.332;2023-03-23T07:24:06;99530.28;;;11.93;73.72
77590;BME280;66746;51.328;12.332;2023-03-23T07:26:42;99531.25;;;11.92;73.31
77590;BME280;66746;51.328;12.332;2023-03-23T07:29:08;99531.25;;;11.92;75.28
77590;BME280;66746;51.328;12.332;2023-03-23T07:31:41;99522.75;;;11.98;73.68
77590;BME280;66746;51.328;12.332;2023-03-23T07:34:07;99535.66;;;11.94;73.93
77590;BME280;66746;51.328;12.332;2023-03-23T07:37:02;99522.75;;;11.98;73.81
77590;BME280;66746;51.328;12.332;2023-03-23T07:39:39;99509.34;;;11.95;72.63
77590;BME280;66746;51.328;12.332;2023-03-23T07:42:04;99530.91;;;12.13;72.97
77590;BME280;66746;51.328;12.332;2023-03-23T07:44:40;99528.31;;;12.12;74.56
77590;BME280;66746;51.328;12.332;2023-03-23T07:47:08;99520.56;;;12.04;74.04
77590;BME280;66746;51.328;12.332;2023-03-23T07:49:34;99531.63;;;12.17;73.56
77590;BME280;66746;51.328;12.332;2023-03-23T07:52:11;99524.25;;;12.19;74.01
77590;BME280;66746;51.328;12.332;2023-03-23T07:54:38;99525.13;;;12.19;73.15
77590;BME280;66746;51.328;12.332;2023-03-23T07:57:18;99518.63;;;12.22;73.40
77590;BME280;66746;51.328;12.332;2023-03-23T07:59:49;99518.63;;;12.22;74.53
77590;BME280;66746;51.328;12.332;2023-03-23T08:02:15;99528.28;;;12.27;73.40
77590;BME280;66746;51.328;12.332;2023-03-23T08:04:51;99525.28;;;12.32;74.25
77590;BME280;66746;51.328;12.332;2023-03-23T08:07:17;99517.56;;;12.40;75.06
77590;BME280;66746;51.328;12.332;2023-03-23T08:09:53;99510.38;;;12.39;75.25
77590;BME280;66746;51.328;12.332;2023-03-23T08:12:29;99520.03;;;12.29;73.84
77590;BME280;66746;51.328;12.332;2023-03-23T08:15:13;99522.47;;;12.33;74.37
77590;BME280;66746;51.328;12.332;2023-03-23T08:17:49;99517.13;;;12.32;74.60
77590;BME280;66746;51.328;12.332;2023-03-23T08:20:25;99513.03;;;12.25;75.60
77590;BME280;66746;51.328;12.332;2023-03-23T08:23:08;99522.13;;;12.24;76.05
77590;BME280;66746;51.328;12.332;2023-03-23T08:25:53;99523.28;;;12.20;75.10
77590;BME280;66746;51.328;12.332;2023-03-23T08:28:58;99496.19;;;12.03;77.92
77590;BME280;66746;51.328;12.332;2023-03-23T08:31:38;99488.38;;;11.97;76.66
77590;BME280;66746;51.328;12.332;2023-03-23T08:34:14;99525.13;;;12.19;78.43
77590;BME280;66746;51.328;12.332;2023-03-23T08:36:49;99525.13;;;12.19;78.09
77590;BME280;66746;51.328;12.332;2023-03-23T08:39:46;99512.34;;;12.21;76.85
77590;BME280;66746;51.328;12.332;2023-03-23T08:42:50;99497.97;;;12.19;78.29
77590;BME280;66746;51.328;12.332;2023-03-23T08:45:40;99498.28;;;12.29;76.56
77590;BME280;66746;51.328;12.332;2023-03-23T08:48:19;99533.50;;;12.62;76.97
77590;BME280;66746;51.328;12.332;2023-03-23T08:51:05;99515.03;;;12.82;74.85
77590;BME280;66746;51.328;12.332;2023-03-23T08:53:58;99512.63;;;13.07;72.23
77590;BME280;66746;51.328;12.332;2023-03-23T08:56:50;99501.66;;;13.23;74.19
77590;BME280;66746;51.328;12.332;2023-03-23T08:59:52;99505.63;;;13.31;73.66
77590;BME280;66746;51.328;12.332;2023-03-23T09:02:29;99497.28;;;13.35;71.90
77590;BME280;66746;51.328;12.332;2023-03-23T09:05:11;99509.53;;;13.42;70.56
77590;BME280;66746;51.328;12.332;2023-03-23T09:07:46;99503.53;;;13.51;71.62
77590;BME280;66746;51.328;12.332;2023-03-23T09:10:13;99503.31;;;13.54;70.54
77590;BME280;66746;51.328;12.332;2023-03-23T09:12:39;99487.56;;;13.59;71.32
77590;BME280;66746;51.328;12.332;2023-03-23T09:15:08;99509.16;;;13.76;69.07
77590;BME280;66746;51.328;12.332;2023-03-23T09:17:34;99494.56;;;13.77;68.00
77590;BME280;66746;51.328;12.332;2023-03-23T09:20:02;99506.50;;;13.88;68.72
77590;BME280;66746;51.328;12.332;2023-03-23T09:22:28;99507.59;;;13.86;67.78
77590;BME280;66746;51.328;12.332;2023-03-23T09:24:53;99511.88;;;13.90;69.31
77590;BME280;66746;51.328;12.332;2023-03-23T09:27:19;99508.56;;;13.85;68.77
77590;BME280;66746;51.328;12.332;2023-03-23T09:29:44;99514.41;;;13.93;67.92
77590;BME280;66746;51.328;12.332;2023-03-23T09:32:11;99517.91;;;13.95;68.13
77590;BME280;66746;51.328;12.332;2023-03-23T09:34:36;99516.34;;;14.05;67.53
77590;BME280;66746;51.328;12.332;2023-03-23T09:37:04;99505.69;;;14.14;66.88
77590;BME280;66746;51.328;12.332;2023-03-23T09:39:31;99490.63;;;14.09;67.28
77590;BME280;66746;51.328;12.332;2023-03-23T09:42:16;99498.97;;;14.20;66.13
77590;BME280;66746;51.328;12.332;2023-03-23T09:44:55;99503.84;;;14.15;66.23
77590;BME280;66746;51.328;12.332;2023-03-23T09:47:31;99506.66;;;14.28;67.05
77590;BME280;66746;51.328;12.332;2023-03-23T09:50:07;99513.94;;;14.41;65.72
77590;BME280;66746;51.328;12.332;2023-03-23T09:52:38;99520.00;;;14.32;65.41
77590;BME280;66746;51.328;12.332;2023-03-23T09:55:09;99521.56;;;14.36;65.53
77590;BME280;66746;51.328;12.332;2023-03-23T09:57:40;99493.66;;;14.45;65.42
77590;BME280;66746;51.328;12.332;2023-03-23T10:00:12;99513.63;;;14.46;65.53
77590;BME280;66746;51.328;12.332;2023-03-23T10:02:48;99517.66;;;14.40;65.71
77590;BME280;66746;51.328;12.332;2023-03-23T10:05:33;99497.00;;;14.22;65.11
77590;BME280;66746;51.328;12.332;2023-03-23T10:08:08;99522.69;;;14.46;65.20
77590;BME280;66746;51.328;12.332;2023-03-23T10:10:42;99508.47;;;14.41;63.54
77590;BME280;66746;51.328;12.332;2023-03-23T10:13:17;99517.50;;;14.56;63.79
77590;BME280;66746;51.328;12.332;2023-03-23T10:15:45;99515.44;;;14.59;64.73
77590;BME280;66746;51.328;12.332;2023-03-23T10:18:16;99511.75;;;14.60;63.42
77590;BME280;66746;51.328;12.332;2023-03-23T10:20:48;99512.59;;;14.61;63.65
77590;BME280;66746;51.328;12.332;2023-03-23T10:23:33;99513.69;;;14.58;62.20
77590;BME280;66746;51.328;12.332;2023-03-23T10:26:04;99500.50;;;14.65;60.89
77590;BME280;66746;51.328;12.332;2023-03-23T10:28:38;99506.00;;;14.77;63.05
77590;BME280;66746;51.328;12.332;2023-03-23T10:31:08;99510.38;;;14.80;60.92
77590;BME280;66746;51.328;12.332;2023-03-23T10:33:40;99509.75;;;14.89;61.88
77590;BME280;66746;51.328;12.332;2023-03-23T10:36:10;99513.91;;;14.94;63.12
77590;BME280;66746;51.328;12.332;2023-03-23T10:38:39;99521.69;;;15.00;61.07
77590;BME280;66746;51.328;12.332;2023-03-23T10:41:10;99528.13;;;14.99;61.36
77590;BME280;66746;51.328;12.332;2023-03-23T10:43:36;99518.75;;;15.03;61.09
77590;BME280;66746;51.328;12.332;2023-03-23T10:46:04;99528.56;;;14.93;59.08
77590;BME280;66746;51.328;12.332;2023-03-23T10:48:35;99525.47;;;14.85;61.42
77590;BME280;66746;51.328;12.332;2023-03-23T10:51:08;99529.16;;;14.84;58.06
77590;BME280;66746;51.328;12.332;2023-03-23T10:53:37;99529.16;;;14.84;58.97
77590;BME280;66746;51.328;12.332;2023-03-23T10:56:04;99521.75;;;14.86;56.90
77590;BME280;66746;51.328;12.332;2023-03-23T10:58:31;99537.16;;;14.87;59.46
77590;BME280;66746;51.328;12.332;2023-03-23T11:00:58;99528.09;;;14.87;57.79
77590;BME280;66746;51.328;12.332;2023-03-23T11:03:27;99522.09;;;14.94;58.28
77590;BME280;66746;51.328;12.332;2023-03-23T11:05:56;99517.63;;;14.93;58.21
77590;BME280;66746;51.328;12.332;2023-03-23T11:08:27;99527.19;;;14.86;55.17
77590;BME280;66746;51.328;12.332;2023-03-23T11:10:55;99545.69;;;14.95;57.47
77590;BME280;66746;51.328;12.332;2023-03-23T11:13:22;99537.75;;;15.05;56.31
77590;BME280;66746;51.328;12.332;2023-03-23T11:15:49;99545.59;;;15.09;56.16
77590;BME280;66746;51.328;12.332;2023-03-23T11:18:19;99562.09;;;15.08;55.53
77590;BME280;66746;51.328;12.332;2023-03-23T11:20:48;99549.97;;;14.99;56.79
77590;BME280;66746;51.328;12.332;2023-03-23T11:23:19;99546.78;;;14.93;56.53
77590;BME280;66746;51.328;12.332;2023-03-23T11:25:59;99555.69;;;14.82;56.18
77590;BME280;66746;51.328;12.332;2023-03-23T11:28:29;99552.09;;;14.82;55.80
77590;BME280;66746;51.328;12.332;2023-03-23T11:30:55;99541.25;;;14.80;57.19
77590;BME280;66746;51.328;12.332;2023-03-23T11:33:23;99540.41;;;14.80;57.31
77590;BME280;66746;51.328;12.332;2023-03-23T11:35:48;99539.06;;;14.73;58.16
77590;BME280;66746;51.328;12.332;2023-03-23T11:38:17;99551.41;;;14.78;58.63
77590;BME280;66746;51.328;12.332;2023-03-23T11:40:46;99553.84;;;14.83;59.59
77590;BME280;66746;51.328;12.332;2023-03-23T11:43:14;99553.59;;;14.73;59.16
77590;BME280;66746;51.328;12.332;2023-03-23T11:45:48;99552.41;;;14.77;58.41
77590;BME280;66746;51.328;12.332;2023-03-23T11:48:22;99556.53;;;14.70;58.29
77590;BME280;66746;51.328;12.332;2023-03-23T11:50:52;99559.28;;;14.70;59.56
77590;BME280;66746;51.328;12.332;2023-03-23T11:53:27;99546.69;;;14.68;58.28
77590;BME280;66746;51.328;12.332;2023-03-23T11:56:02;99544.31;;;14.76;58.66
77590;BME280;66746;51.328;12.332;2023-03-23T11:58:31;99548.19;;;14.86;57.15
77590;BME280;66746;51.328;12.332;2023-03-23T12:00:57;99552.53;;;14.88;57.65
77590;BME280;66746;51.328;12.332;2023-03-23T12:03:39;99541.78;;;14.99;56.88
77590;BME280;66746;51.328;12.332;2023-03-23T12:06:08;99542.13;;;15.07;58.29
77590;BME280;66746;51.328;12.332;2023-03-23T12:08:57;99550.66;;;15.16;57.25
77590;BME280;66746;51.328;12.332;2023-03-23T12:11:30;99546.50;;;15.10;57.97
77590;BME280;66746;51.328;12.332;2023-03-23T12:14:08;99549.09;;;15.12;58.26
77590;BME280;66746;51.328;12.332;2023-03-23T12:16:47;99538.81;;;15.02;57.15
77590;BME280;66746;51.328;12.332;2023-03-23T12:19:20;99544.41;;;15.14;58.87
77590;BME280;66746;51.328;12.332;2023-03-23T12:24:52;99543.31;;;15.03;59.80
77590;BME280;66746;51.328;12.332;2023-03-23T12:27:27;99537.28;;;14.98;58.82
77590;BME280;66746;51.328;12.332;2023-03-23T12:30:04;99524.81;;;14.94;59.71
77590;BME280;66746;51.328;12.332;2023-03-23T12:32:49;99528.09;;;14.87;60.54
77590;BME280;66746;51.328;12.332;2023-03-23T12:35:28;99526.13;;;14.89;60.15
77590;BME280;66746;51.328;12.332;2023-03-23T12:38:13;99536.63;;;14.95;60.19
77590;BME280;66746;51.328;12.332;2023-03-23T12:40:52;99517.44;;;15.09;58.96
77590;BME280;66746;51.328;12.332;2023-03-23T12:43:28;99484.03;;;15.18;58.60
77590;BME280;66746;51.328;12.332;2023-03-23T12:46:10;99478.75;;;15.02;57.26
77590;BME280;66746;51.328;12.332;2023-03-23T12:48:40;99475.72;;;15.20;58.20
77590;BME280;66746;51.328;12.332;2023-03-23T12:51:11;99475.06;;;15.41;57.72
77590;BME280;66746;51.328;12.332;2023-03-23T12:53:43;99496.72;;;15.57;57.05
77590;BME280;66746;51.328;12.332;2023-03-23T12:56:14;99493.03;;;15.58;54.97
77590;BME280;66746;51.328;12.332;2023-03-23T12:58:44;99503.19;;;15.56;54.32
77590;BME280;66746;51.328;12.332;2023-03-23T13:01:14;99501.34;;;15.56;55.18
77590;BME280;66746;51.328;12.332;2023-03-23T13:03:46;99495.97;;;15.55;54.36
77590;BME280;66746;51.328;12.332;2023-03-23T13:06:18;99494.88;;;15.57;53.22
77590;BME280;66746;51.328;12.332;2023-03-23T13:08:52;99499.59;;;15.68;52.84
77590;BME280;66746;51.328;12.332;2023-03-23T13:11:21;99503.53;;;15.64;51.42
77590;BME280;66746;51.328;12.332;2023-03-23T13:13:51;99507.88;;;15.66;51.86
77590;BME280;66746;51.328;12.332;2023-03-23T13:16:26;99497.19;;;15.76;52.35
77590;BME280;66746;51.328;12.332;2023-03-23T13:19:04;99509.41;;;15.70;50.45